TimeEDT,TemperatureF,Dew PointF,Humidity,Sea Level PressureIn,VisibilityMPH,Wind Direction,Wind SpeedMPH,Gust SpeedMPH,PrecipitationIn,Events,Conditions,WindDirDegrees,DateUTC
12:54 AM,70.0,69.1,97,30.02,8.0,Calm,Calm,-,N/A,,Clear,0,2013-08-05 04:54:00
1:54 AM,70.0,68.0,93,30.01,8.0,Calm,Calm,-,N/A,,Clear,0,2013-08-05 05:54:00
2:54 AM,70.0,66.9,90,30.01,9.0,Calm,Calm,-,N/A,,Partly Cloudy,0,2013-08-05 06:54:00
3:54 AM,69.1,66.9,93,30.00,9.0,Calm,Calm,-,N/A,,Clear,0,2013-08-05 07:54:00
4:54 AM,69.1,66.9,93,30.01,8.0,Calm,Calm,-,N/A,,Clear,0,2013-08-05 08:54:00
5:54 AM,68.0,66.9,96,30.02,7.0,NNE,3.5,-,N/A,,Scattered Clouds,20,2013-08-05 09:54:00
6:54 AM,69.1,66.9,93,30.04,7.0,Calm,Calm,-,N/A,,Partly Cloudy,0,2013-08-05 10:54:00
7:54 AM,73.0,68.0,84,30.05,7.0,East,3.5,-,N/A,,Scattered Clouds,90,2013-08-05 11:54:00
8:54 AM,75.0,68.0,79,30.06,8.0,ENE,4.6,-,N/A,,Partly Cloudy,70,2013-08-05 12:54:00
9:54 AM,77.0,66.9,71,30.06,9.0,Calm,Calm,-,N/A,,Clear,0,2013-08-05 13:54:00
10:54 AM,78.1,66.9,68,30.07,10.0,Variable,3.5,-,N/A,,Overcast,0,2013-08-05 14:54:00
11:54 AM,82.0,68.0,62,30.07,10.0,Variable,5.8,-,N/A,,Mostly Cloudy,0,2013-08-05 15:54:00
12:54 PM,82.0,66.0,58,30.05,10.0,SSW,10.4,-,N/A,,Partly Cloudy,210,2013-08-05 16:54:00
1:54 PM,81.0,66.0,60,30.03,10.0,South,8.1,-,N/A,,Overcast,180,2013-08-05 17:54:00
2:54 PM,84.0,64.9,53,30.01,10.0,Variable,5.8,-,N/A,,Scattered Clouds,0,2013-08-05 18:54:00
3:54 PM,84.0,64.0,51,30.01,10.0,Variable,4.6,-,N/A,,Clear,0,2013-08-05 19:54:00
4:54 PM,84.0,64.0,51,29.99,10.0,SSW,8.1,-,N/A,,Clear,210,2013-08-05 20:54:00
5:54 PM,84.0,66.0,55,29.98,10.0,South,5.8,-,N/A,,Partly Cloudy,190,2013-08-05 21:54:00
6:54 PM,82.9,66.0,56,29.98,10.0,South,5.8,-,N/A,,Clear,180,2013-08-05 22:54:00
7:54 PM,81.0,66.0,60,29.98,10.0,SSE,4.6,-,N/A,,Clear,150,2013-08-05 23:54:00
8:54 PM,77.0,66.9,71,30.00,10.0,Calm,Calm,-,N/A,,Clear,0,2013-08-06 00:54:00
9:54 PM,77.0,66.9,71,30.00,10.0,South,8.1,-,N/A,,Clear,170,2013-08-06 01:54:00
10:54 PM,75.9,68.0,76,30.00,10.0,South,8.1,-,N/A,,Scattered Clouds,190,2013-08-06 02:54:00
11:54 PM,75.0,66.0,73,30.01,10.0,South,6.9,-,N/A,,Clear,180,2013-08-06 03:54:00